Time;durP1;ratioP1;P1;durP2;ratioP2;P2;SDS_P1;SDS_P2;PMS_P1;PMS_P2;Temp;Humidity;BMP_temperature;BMP_pressure;BME280_temperature;BME280_humidity;BME280_pressure;Samples;Min_cycle;Max_cycle;Signal;HPM_P1;HPM_P2
2021/05/07 00:01:02;;;;;;;4.07;1.80;;;5.60;78.80;;;;;;5036135;28;20185;-85
2021/05/07 00:03:28;;;;;;;12.27;2.53;;;5.60;78.60;;;;;;5035165;28;20202;-85
2021/05/07 00:05:57;;;;;;;6.57;1.97;;;5.50;78.70;;;;;;5035123;28;20202;-85
2021/05/07 00:08:28;;;;;;;8.83;2.23;;;5.50;78.70;;;;;;5053032;28;20233;-85
2021/05/07 00:10:56;;;;;;;6.77;2.10;;;5.50;78.80;;;;;;5053132;28;20179;-86
2021/05/07 00:13:22;;;;;;;5.80;1.87;;;5.40;79.40;;;;;;5053006;28;20203;-85
2021/05/07 00:15:48;;;;;;;5.13;2.17;;;5.50;79.40;;;;;;5053018;28;20164;-86
2021/05/07 00:18:14;;;;;;;7.63;2.03;;;5.50;79.30;;;;;;5035083;28;20320;-85
2021/05/07 00:20:40;;;;;;;8.60;2.27;;;5.50;79.00;;;;;;5052830;28;20170;-85
2021/05/07 00:23:06;;;;;;;3.47;1.73;;;5.60;79.10;;;;;;5034972;28;20190;-85
2021/05/07 00:25:32;;;;;;;2.97;2.07;;;5.50;79.40;;;;;;5052762;28;20214;-85
2021/05/07 00:27:59;;;;;;;8.07;2.30;;;5.50;79.90;;;;;;5052840;28;20167;-85
2021/05/07 00:30:25;;;;;;;12.30;2.00;;;5.50;80.10;;;;;;5052890;28;20582;-85
2021/05/07 00:32:51;;;;;;;8.00;2.20;;;5.50;80.20;;;;;;5034998;28;20551;-85
2021/05/07 00:35:17;;;;;;;10.83;3.73;;;5.50;80.10;;;;;;5052664;28;20191;-85
2021/05/07 00:37:43;;;;;;;10.60;3.53;;;5.40;80.40;;;;;;5052755;28;20685;-85
2021/05/07 00:40:09;;;;;;;6.77;2.53;;;5.40;81.00;;;;;;5052805;28;20581;-85
2021/05/07 00:42:35;;;;;;;6.50;2.40;;;5.30;81.20;;;;;;5035358;28;20183;-85
2021/05/07 00:45:00;;;;;;;8.30;2.53;;;5.40;81.40;;;;;;5038492;28;20204;-85
2021/05/07 00:47:26;;;;;;;4.60;2.03;;;5.40;81.40;;;;;;5056456;28;20274;-85
2021/05/07 00:49:53;;;;;;;8.37;2.10;;;5.50;81.00;;;;;;5056710;28;20250;-85
2021/05/07 00:52:19;;;;;;;3.77;2.20;;;5.50;80.70;;;;;;5038517;28;20550;-85
2021/05/07 00:54:44;;;;;;;8.80;2.07;;;5.50;80.50;;;;;;5056230;28;20186;-85
2021/05/07 00:57:10;;;;;;;6.40;2.20;;;5.50;80.30;;;;;;5056553;28;20175;-85
2021/05/07 00:59:36;;;;;;;8.63;3.33;;;5.50;80.10;;;;;;5038652;28;20538;-85
2021/05/07 01:02:02;;;;;;;5.33;2.43;;;5.40;80.20;;;;;;5038388;28;20646;-85
2021/05/07 01:04:27;;;;;;;4.83;2.23;;;5.40;80.20;;;;;;5038105;28;20209;-85
2021/05/07 01:06:53;;;;;;;9.80;2.60;;;5.40;79.80;;;;;;5038241;28;20185;-85
2021/05/07 01:09:19;;;;;;;7.73;2.90;;;5.40;79.60;;;;;;5038187;28;20182;-85
2021/05/07 01:11:45;;;;;;;6.50;3.07;;;5.40;79.40;;;;;;5056006;28;20174;-85
2021/05/07 01:14:11;;;;;;;7.60;2.93;;;5.40;79.30;;;;;;5037877;28;20715;-85
2021/05/07 01:16:36;;;;;;;9.23;3.10;;;5.40;79.40;;;;;;5038144;28;20179;-85
2021/05/07 01:19:04;;;;;;;5.03;2.40;;;5.40;79.10;;;;;;5055893;28;20257;-85
2021/05/07 01:21:32;;;;;;;11.33;2.80;;;5.40;79.10;;;;;;5055868;28;20177;-85
2021/05/07 01:23:57;;;;;;;6.33;2.50;;;5.40;79.50;;;;;;5055635;28;20220;-85
2021/05/07 01:26:23;;;;;;;5.50;2.53;;;5.40;79.50;;;;;;5056032;28;20663;-85
2021/05/07 01:28:48;;;;;;;4.50;2.67;;;5.40;79.40;;;;;;5037925;28;20207;-85
2021/05/07 01:31:14;;;;;;;9.77;3.00;;;5.40;79.40;;;;;;5055712;28;20168;-85
2021/05/07 01:33:40;;;;;;;5.23;2.80;;;5.40;79.40;;;;;;5037683;28;20544;-85
2021/05/07 01:36:06;;;;;;;9.17;3.20;;;5.40;79.30;;;;;;5037684;28;20194;-85
2021/05/07 01:38:33;;;;;;;6.43;2.70;;;5.40;79.50;;;;;;5037718;28;20179;-85
2021/05/07 01:40:59;;;;;;;11.40;3.50;;;5.40;79.80;;;;;;5055377;28;20220;-85
2021/05/07 01:43:26;;;;;;;10.67;3.47;;;5.40;80.30;;;;;;5037373;28;20199;-85
2021/05/07 01:45:52;;;;;;;7.97;3.53;;;5.40;80.60;;;;;;5037457;28;20688;-85
2021/05/07 01:48:18;;;;;;;12.33;4.17;;;5.40;80.80;;;;;;5037580;28;20205;-85
2021/05/07 01:50:45;;;;;;;13.30;3.80;;;5.40;80.60;;;;;;5037437;28;20175;-85
2021/05/07 01:53:10;;;;;;;6.67;3.30;;;5.40;80.30;;;;;;5054834;28;20174;-85
2021/05/07 01:55:39;;;;;;;13.80;2.97;;;5.40;80.10;;;;;;5055143;28;20546;-85
2021/05/07 01:58:07;;;;;;;4.67;3.40;;;5.40;80.00;;;;;;5055107;28;20171;-85
2021/05/07 02:00:34;;;;;;;12.73;3.83;;;5.50;80.50;;;;;;5055140;28;20170;-85
2021/05/07 02:03:03;;;;;;;11.07;3.40;;;5.50;80.70;;;;;;5055033;28;20170;-85
2021/05/07 02:05:32;;;;;;;7.50;3.13;;;5.50;81.80;;;;;;5054941;28;20565;-85
2021/05/07 02:07:59;;;;;;;3.93;3.10;;;5.40;82.60;;;;;;5037126;28;20718;-85
2021/05/07 02:10:26;;;;;;;11.50;4.00;;;5.40;83.40;;;;;;5054887;28;20194;-85
2021/05/07 02:12:54;;;;;;;8.47;3.10;;;5.40;84.10;;;;;;5036992;28;20224;-85
2021/05/07 02:15:22;;;;;;;6.30;3.20;;;5.30;84.90;;;;;;5054737;28;20189;-85
2021/05/07 02:17:48;;;;;;;6.23;3.80;;;5.30;84.30;;;;;;5054784;28;20172;-85
2021/05/07 02:20:15;;;;;;;9.07;3.80;;;5.40;83.70;;;;;;5054878;28;20172;-85
2021/05/07 02:22:46;;;;;;;11.33;4.13;;;5.30;83.80;;;;;;5036790;28;20552;-85
2021/05/07 02:25:13;;;;;;;14.17;4.50;;;5.30;83.80;;;;;;5036638;28;20200;-85
2021/05/07 02:27:38;;;;;;;5.53;3.77;;;5.30;83.70;;;;;;5036687;28;20172;-85
2021/05/07 02:30:09;;;;;;;8.03;3.97;;;5.30;84.30;;;;;;5036713;28;20182;-85
2021/05/07 02:32:35;;;;;;;10.50;3.90;;;5.30;84.30;;;;;;5036640;28;20168;-85
2021/05/07 02:35:00;;;;;;;9.63;4.40;;;5.30;84.60;;;;;;5036505;28;20195;-85
2021/05/07 02:37:26;;;;;;;6.77;3.70;;;5.20;84.30;;;;;;5036614;28;20176;-85
2021/05/07 02:39:52;;;;;;;5.80;2.93;;;5.20;84.50;;;;;;5054394;28;20521;-85
2021/05/07 02:42:18;;;;;;;9.40;3.40;;;5.20;84.40;;;;;;5036396;28;20198;-85
2021/05/07 02:44:43;;;;;;;6.80;2.50;;;5.20;84.30;;;;;;5054074;28;20196;-85
2021/05/07 02:47:09;;;;;;;8.73;2.60;;;5.30;84.30;;;;;;5036346;28;20219;-85
2021/05/07 02:49:35;;;;;;;7.40;3.27;;;5.30;83.90;;;;;;5054139;28;20200;-85
2021/05/07 02:52:02;;;;;;;8.60;2.97;;;5.30;84.00;;;;;;5036226;28;20640;-85
2021/05/07 02:54:28;;;;;;;6.90;3.60;;;5.30;84.20;;;;;;5036067;28;20249;-85
2021/05/07 02:56:54;;;;;;;12.07;4.30;;;5.20;84.60;;;;;;5036279;28;20656;-85
2021/05/07 02:59:20;;;;;;;11.93;4.70;;;5.30;84.70;;;;;;5036124;28;20181;-85
2021/05/07 03:01:45;;;;;;;11.63;5.80;;;5.20;85.40;;;;;;5036152;28;20236;-85
2021/05/07 03:04:11;;;;;;;12.40;5.73;;;5.20;85.70;;;;;;5053801;28;20198;-85
2021/05/07 03:06:37;;;;;;;9.80;6.27;;;5.10;86.20;;;;;;5053115;28;20632;-85
2021/05/07 03:09:04;;;;;;;12.53;5.70;;;5.10;86.30;;;;;;5053784;28;20168;-85
2021/05/07 03:11:29;;;;;;;13.17;6.23;;;5.10;86.60;;;;;;5053794;28;20666;-85
2021/05/07 03:13:55;;;;;;;12.27;4.83;;;5.20;86.50;;;;;;5053684;28;20294;-85
2021/05/07 03:16:22;;;;;;;8.53;5.43;;;5.20;86.60;;;;;;5035896;28;20168;-85
2021/05/07 03:18:48;;;;;;;9.40;5.40;;;5.30;86.60;;;;;;5035751;28;20177;-85
2021/05/07 03:21:14;;;;;;;13.37;5.53;;;5.30;86.60;;;;;;5035775;28;20178;-85
2021/05/07 03:23:39;;;;;;;10.13;6.17;;;5.30;86.80;;;;;;5035709;28;20632;-85
2021/05/07 03:26:05;;;;;;;14.77;8.23;;;5.10;87.50;;;;;;5035600;28;20203;-85
2021/05/07 03:28:30;;;;;;;8.70;6.63;;;5.10;87.90;;;;;;5035654;28;20172;-85
2021/05/07 03:30:56;;;;;;;11.30;6.70;;;5.10;88.20;;;;;;5053495;28;20172;-85
2021/05/07 03:33:22;;;;;;;10.97;6.80;;;5.00;88.40;;;;;;5035498;28;20287;-85
2021/05/07 03:35:47;;;;;;;8.83;6.43;;;5.00;88.50;;;;;;5035516;28;20175;-85
2021/05/07 03:38:13;;;;;;;10.57;6.10;;;5.10;88.60;;;;;;5035523;28;20525;-85
2021/05/07 03:40:38;;;;;;;9.87;5.13;;;5.10;88.40;;;;;;5035535;28;20179;-85
2021/05/07 03:43:04;;;;;;;7.27;5.43;;;5.10;88.10;;;;;;5035365;28;20176;-85
2021/05/07 03:45:29;;;;;;;8.73;5.53;;;5.20;88.30;;;;;;5035449;28;20195;-85
2021/05/07 03:47:55;;;;;;;5.37;3.17;;;5.30;88.00;;;;;;5035431;28;20177;-85
2021/05/07 03:50:21;;;;;;;2.90;2.60;;;5.20;86.70;;;;;;5053249;28;20223;-85
2021/05/07 03:52:47;;;;;;;8.80;3.43;;;5.10;85.80;;;;;;5035292;28;20702;-85
2021/05/07 03:55:13;;;;;;;4.80;2.60;;;5.00;85.70;;;;;;5035259;28;20231;-85
2021/05/07 03:57:40;;;;;;;7.70;2.83;;;4.90;86.00;;;;;;5035676;28;20638;-85
2021/05/07 04:00:08;;;;;;;5.87;2.90;;;4.80;86.50;;;;;;5035476;28;20189;-85
2021/05/07 04:02:34;;;;;;;4.93;2.90;;;4.70;86.30;;;;;;5035257;28;20643;-84
2021/05/07 04:05:00;;;;;;;5.60;2.87;;;4.70;86.00;;;;;;5035123;28;20261;-85
2021/05/07 04:07:27;;;;;;;5.40;2.27;;;4.60;86.40;;;;;;5035077;28;20179;-85
2021/05/07 04:09:59;;;;;;;6.73;2.63;;;4.60;86.20;;;;;;5035175;28;20183;-85
2021/05/07 04:14:59;;;;;;;4.37;1.73;;;4.50;85.60;;;;;;5052838;28;20207;-85
2021/05/07 04:17:24;;;;;;;4.07;2.00;;;4.50;85.70;;;;;;5037131;28;20746;-85
2021/05/07 04:19:50;;;;;;;3.37;2.03;;;4.50;86.10;;;;;;5039160;28;20643;-85
2021/05/07 04:22:16;;;;;;;5.43;1.80;;;4.40;86.80;;;;;;5039122;28;20193;-85
2021/05/07 04:24:41;;;;;;;6.37;2.33;;;4.40;86.50;;;;;;5038963;28;20706;-85
2021/05/07 04:27:07;;;;;;;3.67;1.87;;;4.50;86.60;;;;;;5056941;28;20179;-85
2021/05/07 04:29:32;;;;;;;2.00;1.60;;;4.50;86.70;;;;;;5038948;28;20183;-85
2021/05/07 04:31:59;;;;;;;4.83;1.53;;;4.60;86.70;;;;;;5038919;28;20187;-85
2021/05/07 04:34:25;;;;;;;4.37;2.10;;;4.60;86.80;;;;;;5056649;28;20667;-85
2021/05/07 04:36:51;;;;;;;1.90;1.57;;;4.70;86.70;;;;;;5056618;28;20179;-85
2021/05/07 04:39:17;;;;;;;4.00;1.70;;;4.60;86.80;;;;;;5056935;28;20184;-85
2021/05/07 04:41:42;;;;;;;3.33;1.77;;;4.50;86.90;;;;;;5038818;28;20237;-85
2021/05/07 04:44:08;;;;;;;2.77;1.20;;;4.50;87.20;;;;;;5038633;28;20231;-85
2021/05/07 04:46:33;;;;;;;1.67;1.37;;;4.60;87.30;;;;;;5038609;28;20724;-85
2021/05/07 04:48:59;;;;;;;2.97;1.50;;;4.60;87.40;;;;;;5056457;28;20168;-85
2021/05/07 04:51:25;;;;;;;4.23;2.20;;;4.60;87.50;;;;;;5056423;28;20254;-85
2021/05/07 04:53:50;;;;;;;4.33;1.53;;;4.60;87.60;;;;;;5056334;28;20195;-85
2021/05/07 04:56:16;;;;;;;3.80;1.83;;;4.50;87.60;;;;;;5038569;28;20535;-85
2021/05/07 04:58:41;;;;;;;4.23;1.80;;;4.60;87.80;;;;;;5038464;28;20300;-86
2021/05/07 05:01:07;;;;;;;2.20;1.60;;;4.60;87.90;;;;;;5038385;28;20181;-86
2021/05/07 05:03:32;;;;;;;3.47;1.93;;;4.80;88.00;;;;;;5038298;28;20215;-85
2021/05/07 05:05:58;;;;;;;5.10;1.90;;;4.90;88.10;;;;;;5038196;28;20200;-85
2021/05/07 05:08:25;;;;;;;3.90;2.00;;;4.90;88.10;;;;;;5038274;28;20240;-85
2021/05/07 05:10:58;;;;;;;1.80;1.60;;;4.90;88.10;;;;;;5038228;28;20180;-85
2021/05/07 05:13:24;;;;;;;2.57;1.90;;;5.00;88.10;;;;;;5037965;28;20269;-86
2021/05/07 05:15:51;;;;;;;4.53;2.07;;;5.00;87.80;;;;;;5038020;28;20165;-86
2021/05/07 05:18:25;;;;;;;6.90;3.67;;;5.00;87.60;;;;;;5037946;28;20244;-86
2021/05/07 05:20:59;;;;;;;6.60;3.50;;;5.20;87.30;;;;;;5055821;28;20168;-85
2021/05/07 05:23:25;;;;;;;4.97;2.93;;;5.10;87.00;;;;;;5056065;28;20210;-85
2021/05/07 05:25:51;;;;;;;4.20;3.20;;;5.10;87.40;;;;;;5037847;28;20208;-85
2021/05/07 05:28:17;;;;;;;6.47;3.37;;;5.00;87.30;;;;;;5037071;28;20595;-85
2021/05/07 05:30:44;;;;;;;6.37;3.23;;;5.00;87.60;;;;;;5055684;28;20175;-85
2021/05/07 05:33:09;;;;;;;3.67;3.30;;;5.00;87.70;;;;;;5037771;28;20225;-85
2021/05/07 05:35:36;;;;;;;10.87;3.77;;;5.00;88.00;;;;;;5055616;28;20216;-85
2021/05/07 05:38:02;;;;;;;6.90;3.93;;;5.00;88.50;;;;;;5038134;28;20215;-85
2021/05/07 05:40:27;;;;;;;4.37;3.60;;;5.10;88.30;;;;;;5037706;28;20182;-85
2021/05/07 05:42:53;;;;;;;6.40;3.90;;;5.10;88.40;;;;;;5055592;28;20531;-85
2021/05/07 05:45:18;;;;;;;10.53;3.67;;;5.20;88.50;;;;;;5037407;28;20206;-85
2021/05/07 05:47:44;;;;;;;8.80;4.67;;;5.20;88.20;;;;;;5037573;28;20179;-85
2021/05/07 05:50:10;;;;;;;9.10;3.63;;;5.30;88.00;;;;;;5037450;28;20233;-85
2021/05/07 05:52:36;;;;;;;4.43;3.60;;;5.30;87.90;;;;;;5038265;28;20180;-86
2021/05/07 05:55:02;;;;;;;5.57;3.77;;;5.20;87.60;;;;;;5037381;28;20690;-85
2021/05/07 05:57:28;;;;;;;5.03;3.13;;;5.30;87.50;;;;;;5037225;28;20189;-86
2021/05/07 05:59:54;;;;;;;6.37;3.33;;;5.30;87.50;;;;;;5037318;28;20715;-85
2021/05/07 06:02:19;;;;;;;7.27;3.50;;;5.20;87.30;;;;;;5037253;28;20523;-85
2021/05/07 06:04:45;;;;;;;8.63;3.43;;;5.30;87.70;;;;;;5055155;28;20202;-85
2021/05/07 06:07:11;;;;;;;7.27;3.60;;;5.40;87.70;;;;;;5037236;28;20190;-85
2021/05/07 06:09:36;;;;;;;10.93;3.20;;;5.30;87.50;;;;;;5055067;28;20230;-85
2021/05/07 06:12:06;;;;;;;5.57;3.17;;;5.30;87.10;;;;;;5037119;28;20183;-85
2021/05/07 06:14:33;;;;;;;3.10;2.80;;;5.40;87.30;;;;;;5054875;28;20638;-86
2021/05/07 06:16:58;;;;;;;4.77;3.60;;;5.40;86.80;;;;;;5055179;28;20180;-86
2021/05/07 06:19:24;;;;;;;4.27;2.63;;;5.50;87.00;;;;;;5054733;28;20581;-85
2021/05/07 06:21:50;;;;;;;5.83;2.90;;;5.60;86.70;;;;;;5054763;28;20198;-85
2021/05/07 06:24:16;;;;;;;5.63;2.67;;;5.70;86.70;;;;;;5036740;28;20219;-86
2021/05/07 06:26:41;;;;;;;4.33;2.60;;;5.70;86.50;;;;;;5054671;28;20172;-86
2021/05/07 06:29:07;;;;;;;7.07;2.70;;;5.80;86.20;;;;;;5054941;28;20557;-86
2021/05/07 06:31:33;;;;;;;7.73;2.93;;;5.80;85.90;;;;;;5037037;28;20211;-85
2021/05/07 06:33:58;;;;;;;8.67;3.13;;;5.70;85.10;;;;;;5036682;28;20204;-85
2021/05/07 06:36:24;;;;;;;7.77;2.73;;;5.80;85.80;;;;;;5036654;28;20176;-86
2021/05/07 06:38:49;;;;;;;8.33;3.23;;;5.90;86.10;;;;;;5036586;28;20259;-86
2021/05/07 06:41:15;;;;;;;4.87;3.20;;;6.20;86.00;;;;;;5036581;28;20169;-86
2021/05/07 06:43:40;;;;;;;6.80;2.73;;;6.30;85.60;;;;;;5054359;28;20631;-86
2021/05/07 06:46:06;;;;;;;4.80;2.60;;;6.30;84.90;;;;;;5054205;28;20288;-86
2021/05/07 06:48:32;;;;;;;4.97;2.77;;;6.30;84.90;;;;;;5054223;28;20211;-86
2021/05/07 06:50:57;;;;;;;6.07;2.80;;;6.30;84.40;;;;;;5054295;28;20256;-86
2021/05/07 06:53:23;;;;;;;3.63;2.70;;;6.30;84.30;;;;;;5054040;28;20724;-86
2021/05/07 06:55:48;;;;;;;3.67;2.23;;;6.40;84.50;;;;;;5036280;28;20176;-86
2021/05/07 06:58:15;;;;;;;4.43;2.60;;;6.40;84.00;;;;;;5054112;28;20233;-86
2021/05/07 07:00:41;;;;;;;6.23;2.47;;;6.30;83.70;;;;;;5036132;28;20677;-86
2021/05/07 07:03:06;;;;;;;7.00;2.60;;;6.30;84.40;;;;;;5054170;28;20178;-86
2021/05/07 07:05:32;;;;;;;5.37;2.23;;;6.30;84.20;;;;;;5035998;28;20198;-86
2021/05/07 07:07:58;;;;;;;3.43;2.33;;;6.30;84.10;;;;;;5053877;28;20180;-86
2021/05/07 07:10:23;;;;;;;4.83;2.87;;;6.50;83.70;;;;;;5053869;28;20255;-86
2021/05/07 07:12:49;;;;;;;2.97;2.07;;;6.60;84.10;;;;;;5035999;28;20180;-86
2021/05/07 07:15:15;;;;;;;5.03;2.33;;;6.70;83.80;;;;;;5053613;28;20224;-86
2021/05/07 07:17:41;;;;;;;6.03;2.67;;;6.80;82.60;;;;;;5035943;28;20189;-86
2021/05/07 07:20:08;;;;;;;3.57;2.17;;;6.70;83.60;;;;;;5035852;28;20176;-86
2021/05/07 07:22:33;;;;;;;1.80;1.43;;;6.70;83.10;;;;;;5035776;28;20182;-86
2021/05/07 07:24:59;;;;;;;4.03;1.70;;;6.70;83.80;;;;;;5035638;28;20204;-86
2021/05/07 07:27:24;;;;;;;2.70;1.57;;;6.40;84.30;;;;;;5053549;28;20176;-86
2021/05/07 07:29:50;;;;;;;2.70;1.70;;;6.50;84.80;;;;;;5035714;28;20174;-86
2021/05/07 07:32:19;;;;;;;1.80;1.30;;;6.60;83.90;;;;;;5053557;28;20183;-86
2021/05/07 07:34:45;;;;;;;2.70;1.50;;;6.50;82.20;;;;;;5053671;28;20551;-86
2021/05/07 07:37:10;;;;;;;3.10;1.60;;;6.40;82.10;;;;;;5053431;28;20173;-86
2021/05/07 07:39:37;;;;;;;2.57;1.40;;;6.40;81.70;;;;;;5035545;28;20186;-86
2021/05/07 07:42:04;;;;;;;1.33;1.23;;;6.30;81.50;;;;;;5035472;28;20177;-85
2021/05/07 07:44:29;;;;;;;1.60;1.13;;;6.20;82.70;;;;;;5035342;28;20201;-85
2021/05/07 07:46:55;;;;;;;2.33;1.30;;;6.20;83.20;;;;;;5035569;28;20845;-85
2021/05/07 07:49:20;;;;;;;2.40;1.30;;;5.90;83.50;;;;;;5035407;28;20173;-85
2021/05/07 07:51:46;;;;;;;2.87;1.40;;;5.90;83.90;;;;;;5035240;28;20180;-85
2021/05/07 07:54:12;;;;;;;5.93;1.50;;;6.00;83.80;;;;;;5035282;28;20193;-85
2021/05/07 07:56:38;;;;;;;1.50;1.40;;;5.90;83.90;;;;;;5053087;28;20173;-85
2021/05/07 07:59:04;;;;;;;2.13;1.60;;;5.80;84.60;;;;;;5035379;28;20174;-85
2021/05/07 08:01:30;;;;;;;3.83;1.47;;;5.80;84.50;;;;;;5035302;28;20644;-85
2021/05/07 08:03:56;;;;;;;3.93;1.53;;;5.80;85.00;;;;;;5035109;28;20197;-86
2021/05/07 08:06:22;;;;;;;2.03;1.50;;;6.10;85.30;;;;;;5035179;28;20203;-86
2021/05/07 08:08:49;;;;;;;2.03;1.47;;;6.30;86.20;;;;;;5035242;28;20227;-86
2021/05/07 08:11:15;;;;;;;2.37;1.70;;;6.50;86.70;;;;;;5053386;28;20241;-86
2021/05/07 08:13:41;;;;;;;2.63;1.60;;;6.60;85.50;;;;;;5052887;28;20211;-86
2021/05/07 08:16:06;;;;;;;2.17;1.47;;;6.80;86.00;;;;;;5035263;28;20182;-86
2021/05/07 08:18:32;;;;;;;3.00;1.33;;;6.80;84.90;;;;;;5035234;28;20167;-86
2021/05/07 08:20:58;;;;;;;1.93;1.60;;;6.80;85.60;;;;;;5053051;28;20251;-86
2021/05/07 08:23:24;;;;;;;1.40;1.20;;;6.80;83.20;;;;;;5053197;28;20198;-86
2021/05/07 08:25:49;;;;;;;1.47;1.20;;;6.80;82.70;;;;;;5035071;28;20612;-86
2021/05/07 08:28:15;;;;;;;2.67;1.40;;;6.80;82.90;;;;;;5035153;28;20177;-86
2021/05/07 08:30:40;;;;;;;2.70;1.50;;;7.00;83.90;;;;;;5035164;28;20170;-86
2021/05/07 08:33:06;;;;;;;2.53;1.53;;;7.30;85.70;;;;;;5052855;28;20182;-86
2021/05/07 08:35:32;;;;;;;2.60;1.83;;;7.50;83.40;;;;;;5035182;28;20265;-87
2021/05/07 08:37:59;;;;;;;4.83;1.60;;;7.60;84.00;;;;;;5052855;28;20717;-87
2021/05/07 08:40:25;;;;;;;6.17;2.10;;;7.70;83.40;;;;;;5034974;28;20180;-87
2021/05/07 08:42:51;;;;;;;6.17;2.10;;;7.60;80.60;;;;;;5034972;28;20184;-86
2021/05/07 08:45:17;;;;;;;3.93;1.97;;;7.40;81.90;;;;;;5034822;28;20687;-87
2021/05/07 08:47:43;;;;;;;3.10;2.10;;;7.30;80.90;;;;;;5034947;28;20178;-87
2021/05/07 08:50:10;;;;;;;3.00;2.00;;;7.30;81.90;;;;;;5052921;28;20198;-87
2021/05/07 08:52:36;;;;;;;2.90;1.97;;;7.60;82.10;;;;;;5052656;28;20180;-87
2021/05/07 08:55:04;;;;;;;3.70;1.93;;;7.80;82.10;;;;;;5035989;28;20199;-86
2021/05/07 08:57:30;;;;;;;5.90;2.13;;;8.20;79.60;;;;;;5035015;28;20176;-86
2021/05/07 08:59:56;;;;;;;3.93;2.20;;;8.70;81.30;;;;;;5034682;28;20666;-87
2021/05/07 09:02:34;;;;;;;3.07;1.50;;;8.80;79.30;;;;;;5035679;28;20599;-87
2021/05/07 09:05:00;;;;;;;3.30;1.47;;;8.60;75.70;;;;;;5037206;28;20208;-87
2021/05/07 09:07:29;;;;;;;2.93;1.60;;;8.60;75.50;;;;;;5038366;28;20172;-87
2021/05/07 09:09:58;;;;;;;5.00;1.60;;;8.30;73.50;;;;;;5038652;28;20176;-87
2021/05/07 09:12:30;;;;;;;4.13;2.17;;;8.80;76.40;;;;;;5038366;28;20168;-87
2021/05/07 09:14:56;;;;;;;7.20;1.60;;;8.90;72.30;;;;;;5056026;28;20204;-87
2021/05/07 09:17:24;;;;;;;3.47;1.63;;;9.30;73.40;;;;;;5038271;28;20529;-87
2021/05/07 09:20:06;;;;;;;4.33;1.50;;;9.20;71.00;;;;;;5038162;28;20238;-87
2021/05/07 09:22:32;;;;;;;4.73;1.33;;;9.30;72.50;;;;;;5055964;28;20164;-87
2021/05/07 09:25:07;;;;;;;5.37;1.60;;;9.80;72.60;;;;;;5038221;28;20231;-87
2021/05/07 09:27:33;;;;;;;6.07;1.57;;;9.60;70.80;;;;;;5038068;28;20657;-87
2021/05/07 09:29:59;;;;;;;6.20;1.50;;;9.50;69.00;;;;;;5055814;28;20167;-86
2021/05/07 09:32:33;;;;;;;2.40;1.40;;;9.20;70.00;;;;;;5037889;28;20176;-86
2021/05/07 09:35:10;;;;;;;6.07;1.70;;;9.20;70.70;;;;;;5037910;28;20192;-87
2021/05/07 09:37:36;;;;;;;2.30;1.50;;;9.30;70.50;;;;;;5038142;28;20658;-90
2021/05/07 09:40:28;;;;;;;7.17;1.90;;;9.20;67.40;;;;;;5055651;28;20640;-87
2021/05/07 09:43:06;;;;;;;3.13;1.60;;;8.90;69.70;;;;;;5034952;28;20195;-90
2021/05/07 09:45:32;;;;;;;2.20;1.57;;;8.70;69.40;;;;;;5038337;28;20196;-87
2021/05/07 09:47:58;;;;;;;11.87;1.50;;;8.40;71.10;;;;;;5055840;28;20263;-86
2021/05/07 09:50:37;;;;;;;2.37;1.60;;;8.40;70.80;;;;;;5037845;28;20209;-87
2021/05/07 09:53:13;;;;;;;6.07;1.80;;;8.80;71.00;;;;;;5037852;28;20171;-87
2021/05/07 09:55:40;;;;;;;3.40;1.80;;;9.20;71.70;;;;;;5037515;28;20183;-87
2021/05/07 09:58:06;;;;;;;5.20;1.43;;;9.30;69.30;;;;;;5055495;28;20179;-87
2021/05/07 10:00:32;;;;;;;2.33;1.20;;;9.60;70.90;;;;;;5055409;28;20168;-87
2021/05/07 10:02:59;;;;;;;3.13;1.50;;;9.30;63.00;;;;;;5037442;28;20172;-87
2021/05/07 10:05:24;;;;;;;2.80;1.60;;;9.40;64.40;;;;;;5037362;28;20196;-87
2021/05/07 10:07:54;;;;;;;4.90;1.50;;;9.80;69.90;;;;;;5037595;28;20175;-87
2021/05/07 10:10:24;;;;;;;5.70;1.60;;;10.00;70.20;;;;;;5037763;28;20183;-87
2021/05/07 10:12:53;;;;;;;4.63;1.90;;;9.80;67.40;;;;;;5037498;28;20539;-87
2021/05/07 10:15:39;;;;;;;6.00;2.00;;;9.60;68.30;;;;;;5054665;28;20671;-87
2021/05/07 10:18:06;;;;;;;4.57;2.00;;;9.30;68.80;;;;;;5037458;28;20173;-88
2021/05/07 10:20:37;;;;;;;3.17;2.03;;;9.40;69.80;;;;;;5037032;28;20664;-89
2021/05/07 10:23:23;;;;;;;4.30;1.80;;;9.50;70.10;;;;;;5054810;28;20662;-89
2021/05/07 10:26:04;;;;;;;5.87;1.70;;;9.80;69.70;;;;;;5036872;28;20691;-89
2021/05/07 10:28:47;;;;;;;4.87;1.70;;;9.80;67.90;;;;;;5054944;28;20218;-88
2021/05/07 10:31:15;;;;;;;2.63;1.50;;;9.80;68.00;;;;;;5054724;28;20539;-88
2021/05/07 10:33:57;;;;;;;6.40;1.50;;;9.90;68.70;;;;;;5037100;28;20192;-88
2021/05/07 10:36:23;;;;;;;2.70;1.30;;;10.10;65.50;;;;;;5054594;28;20647;-88
2021/05/07 10:38:49;;;;;;;2.30;1.50;;;10.30;67.30;;;;;;5036679;28;20174;-88
2021/05/07 10:41:14;;;;;;;2.03;1.47;;;10.50;66.70;;;;;;5036712;28;20214;-88
2021/05/07 10:43:45;;;;;;;2.90;1.50;;;10.90;67.00;;;;;;5036648;28;20199;-88
2021/05/07 10:46:25;;;;;;;3.17;1.90;;;10.70;62.30;;;;;;5036731;28;20196;-90
2021/05/07 10:48:55;;;;;;;2.90;1.70;;;10.20;63.50;;;;;;5036653;28;20172;-88
2021/05/07 10:51:25;;;;;;;3.97;1.40;;;10.60;65.50;;;;;;5036988;28;20168;-88
2021/05/07 10:54:06;;;;;;;2.07;1.30;;;10.80;60.00;;;;;;5036349;28;20215;-88
2021/05/07 10:56:37;;;;;;;3.10;1.30;;;11.00;61.00;;;;;;5036449;28;20172;-88
2021/05/07 10:59:17;;;;;;;4.70;1.20;;;10.90;59.80;;;;;;5036560;28;20168;-88
2021/05/07 11:01:59;;;;;;;1.30;1.20;;;10.20;59.80;;;;;;5037109;28;20175;-88
2021/05/07 11:04:25;;;;;;;4.50;1.93;;;10.00;61.70;;;;;;5036167;28;20253;-88
2021/05/07 11:07:02;;;;;;;2.23;1.27;;;10.00;63.80;;;;;;5054014;28;20580;-88
2021/05/07 11:09:28;;;;;;;2.77;1.40;;;10.20;60.30;;;;;;5036301;28;20171;-88
2021/05/07 11:12:04;;;;;;;2.50;1.30;;;10.60;60.00;;;;;;5053910;28;20582;-88
2021/05/07 11:14:33;;;;;;;5.50;1.40;;;11.10;62.50;;;;;;5035902;28;20300;-88
2021/05/07 11:16:59;;;;;;;2.87;1.40;;;10.90;59.50;;;;;;5036008;28;20176;-88
2021/05/07 11:19:33;;;;;;;3.60;1.50;;;11.20;62.00;;;;;;5035933;28;20719;-88
2021/05/07 11:22:05;;;;;;;1.33;1.20;;;11.10;57.70;;;;;;5035969;28;20259;-88
2021/05/07 11:24:32;;;;;;;6.23;1.50;;;11.10;55.90;;;;;;5053562;28;20692;-87
2021/05/07 11:26:58;;;;;;;5.23;1.37;;;10.80;57.10;;;;;;5035156;28;20172;-88
2021/05/07 11:29:28;;;;;;;1.97;1.10;;;11.30;58.70;;;;;;5036693;28;20259;-88
2021/05/07 11:31:54;;;;;;;2.23;1.20;;;11.50;58.10;;;;;;5036587;28;20222;-89
2021/05/07 11:34:26;;;;;;;4.73;1.40;;;11.60;57.10;;;;;;5036018;28;20196;-88
2021/05/07 11:36:59;;;;;;;4.30;1.40;;;11.10;59.00;;;;;;5035866;28;20175;-87
2021/05/07 11:39:26;;;;;;;3.07;1.50;;;10.70;59.60;;;;;;5035836;28;20587;-87
2021/05/07 11:41:51;;;;;;;3.03;1.30;;;10.60;58.90;;;;;;5053432;28;20164;-87
2021/05/07 11:44:17;;;;;;;3.80;1.73;;;9.80;61.90;;;;;;5053235;28;20188;-87
2021/05/07 11:47:05;;;;;;;2.00;1.17;;;9.50;62.10;;;;;;5053588;28;20206;-87
2021/05/07 11:49:38;;;;;;;2.50;1.40;;;9.20;62.30;;;;;;5035548;28;20167;-87
2021/05/07 11:52:05;;;;;;;3.63;1.50;;;9.20;64.20;;;;;;5053390;28;20156;-86
2021/05/07 11:54:43;;;;;;;5.00;1.40;;;8.90;64.80;;;;;;5035368;28;20578;-86
2021/05/07 11:57:10;;;;;;;3.73;1.67;;;8.90;66.80;;;;;;5035501;28;20176;-86
2021/05/07 11:59:49;;;;;;;1.93;1.37;;;8.80;67.20;;;;;;5053225;28;20176;-87
2021/05/07 12:02:20;;;;;;;2.53;1.33;;;8.60;65.50;;;;;;5035993;28;20616;-87
2021/05/07 12:04:46;;;;;;;1.50;1.20;;;7.90;67.30;;;;;;5035386;28;20214;-87
2021/05/07 12:07:31;;;;;;;3.80;1.50;;;7.60;73.20;;;;;;5053168;28;20176;-87
2021/05/07 12:09:58;;;;;;;5.50;1.57;;;7.60;72.50;;;;;;5035437;28;20167;-87
2021/05/07 12:12:26;;;;;;;3.40;1.60;;;7.70;71.80;;;;;;5035240;28;20713;-87
2021/05/07 12:15:03;;;;;;;2.47;1.57;;;7.80;74.20;;;;;;5035136;28;20216;-87
2021/05/07 12:17:42;;;;;;;5.17;1.90;;;7.90;73.90;;;;;;5035272;28;20202;-90
2021/05/07 12:20:29;;;;;;;4.93;2.30;;;8.00;74.30;;;;;;5053063;28;20167;-87
2021/05/07 12:22:56;;;;;;;3.37;1.43;;;8.10;73.90;;;;;;5035080;28;20182;-88
2021/05/07 12:25:26;;;;;;;3.13;1.30;;;8.30;74.10;;;;;;5035174;28;20207;-87
2021/05/07 12:27:54;;;;;;;3.37;1.43;;;8.30;72.40;;;;;;5035707;28;20176;-87
2021/05/07 12:30:20;;;;;;;2.30;1.50;;;8.30;71.20;;;;;;5035116;28;20184;-87
2021/05/07 12:33:04;;;;;;;2.83;1.70;;;8.30;70.90;;;;;;5052954;28;20226;-88
2021/05/07 12:35:39;;;;;;;6.57;1.57;;;8.30;71.30;;;;;;5035132;28;20164;-87
2021/05/07 12:38:36;;;;;;;7.20;1.90;;;8.30;70.80;;;;;;5036404;28;20229;-90
2021/05/07 12:41:16;;;;;;;2.57;1.57;;;8.30;70.50;;;;;;5039077;28;20164;-88
2021/05/07 12:43:49;;;;;;;5.30;1.70;;;8.50;71.30;;;;;;5039603;28;20286;-90
2021/05/07 12:46:16;;;;;;;5.73;1.87;;;8.80;71.30;;;;;;5038833;28;20611;-87
2021/05/07 12:48:50;;;;;;;5.90;1.77;;;9.50;71.90;;;;;;5056771;28;20192;-86
2021/05/07 12:51:16;;;;;;;8.87;1.60;;;10.20;69.50;;;;;;5038698;28;20255;-87
2021/05/07 12:53:42;;;;;;;2.30;1.30;;;10.70;68.90;;;;;;5038612;28;20602;-87
2021/05/07 12:56:12;;;;;;;6.23;1.80;;;10.80;65.70;;;;;;5038568;28;20178;-87
2021/05/07 12:58:38;;;;;;;5.13;2.13;;;11.00;67.20;;;;;;5056450;28;20172;-87
2021/05/07 13:01:04;;;;;;;3.03;1.77;;;10.50;63.10;;;;;;5038542;28;20176;-87